createdAt,value
2023-04-15T00:01:01.895Z,91.50
2023-04-15T00:03:29.862Z,91.60
2023-04-15T00:05:58.311Z,91.60
2023-04-15T00:08:25.759Z,91.60
2023-04-15T00:10:53.133Z,91.60
2023-04-15T00:13:20.292Z,91.60
2023-04-15T00:15:48.066Z,91.60
2023-04-15T00:18:14.971Z,91.70
2023-04-15T00:20:41.815Z,91.70
2023-04-15T00:23:08.697Z,91.70
2023-04-15T00:25:35.541Z,91.70
2023-04-15T00:28:02.885Z,91.80
2023-04-15T00:30:29.894Z,91.90
2023-04-15T00:32:56.774Z,91.90
2023-04-15T00:35:24.069Z,92.00
2023-04-15T00:37:51.548Z,92.00
2023-04-15T00:40:19.761Z,92.00
2023-04-15T00:42:46.586Z,92.20
2023-04-15T00:45:14.162Z,92.00
2023-04-15T00:47:44.720Z,92.00
2023-04-15T00:50:12.572Z,92.00
2023-04-15T00:52:40.596Z,92.20
2023-04-15T00:55:10.340Z,92.00
2023-04-15T00:57:37.571Z,92.00
2023-04-15T01:00:05.775Z,92.00
2023-04-15T01:02:33.561Z,92.00
2023-04-15T01:05:02.328Z,92.00
2023-04-15T01:07:29.772Z,91.90
2023-04-15T01:09:56.839Z,91.90
2023-04-15T01:12:23.745Z,91.90
2023-04-15T01:14:50.831Z,91.90
2023-04-15T01:17:17.806Z,91.90
2023-04-15T01:19:44.669Z,91.90
2023-04-15T01:22:11.490Z,91.90
2023-04-15T01:24:38.662Z,91.90
2023-04-15T01:27:05.711Z,91.80
2023-04-15T01:29:33.314Z,91.80
2023-04-15T01:32:00.245Z,91.90
2023-04-15T01:34:27.542Z,91.90
2023-04-15T01:36:54.638Z,91.80
2023-04-15T01:39:22.683Z,91.80
2023-04-15T01:41:49.559Z,91.80
2023-04-15T01:44:16.902Z,91.90
2023-04-15T01:46:43.788Z,91.80
2023-04-15T01:49:10.741Z,91.80
2023-04-15T01:51:37.917Z,91.80
2023-04-15T01:54:06.546Z,91.80
2023-04-15T01:56:33.525Z,91.80
2023-04-15T01:59:00.783Z,91.80
2023-04-15T02:01:28.014Z,91.80
2023-04-15T02:03:54.939Z,91.80
2023-04-15T02:06:21.769Z,91.80
2023-04-15T02:08:48.618Z,91.80
2023-04-15T02:11:15.497Z,91.70
2023-04-15T02:13:42.383Z,91.70
2023-04-15T02:16:18.959Z,91.80
2023-04-15T02:18:46.898Z,91.80
2023-04-15T02:21:14.017Z,91.80
2023-04-15T02:23:41.118Z,91.70
2023-04-15T02:26:08.206Z,91.70
2023-04-15T02:28:35.795Z,91.90
2023-04-15T02:31:09.598Z,91.70
2023-04-15T02:33:37.915Z,91.70
2023-04-15T02:36:05.179Z,91.90
2023-04-15T02:38:32.086Z,91.70
2023-04-15T02:40:58.891Z,91.70
2023-04-15T02:43:25.742Z,91.70
2023-04-15T02:45:53.401Z,91.70
2023-04-15T02:48:21.183Z,91.70
2023-04-15T02:50:48.134Z,91.60
2023-04-15T02:53:17.465Z,91.70
2023-04-15T02:55:44.340Z,91.70
2023-04-15T02:58:11.170Z,91.70
2023-04-15T03:00:38.022Z,91.70
2023-04-15T03:03:06.138Z,91.70
2023-04-15T03:05:33.137Z,91.70
2023-04-15T03:08:01.403Z,91.70
2023-04-15T03:10:28.539Z,91.70
2023-04-15T03:12:55.633Z,91.70
2023-04-15T03:15:23.938Z,91.70
2023-04-15T03:17:53.001Z,91.70
2023-04-15T03:20:20.353Z,91.70
2023-04-15T03:22:48.447Z,91.70
2023-04-15T03:25:15.751Z,91.80
2023-04-15T03:27:43.223Z,91.70
2023-04-15T03:30:12.393Z,91.70
2023-04-15T03:32:40.407Z,91.70
2023-04-15T03:35:09.659Z,91.70
2023-04-15T03:37:36.832Z,91.80
2023-04-15T03:40:03.704Z,91.90
2023-04-15T03:42:30.607Z,91.70
2023-04-15T03:44:57.444Z,91.70
2023-04-15T03:47:24.337Z,91.60
2023-04-15T03:49:51.086Z,91.60
2023-04-15T03:52:17.937Z,91.60
2023-04-15T03:54:44.713Z,91.60
2023-04-15T03:57:11.612Z,91.60
2023-04-15T03:59:38.500Z,91.60
2023-04-15T04:02:05.849Z,91.60
2023-04-15T04:04:32.815Z,91.60
2023-04-15T04:06:59.665Z,91.60
2023-04-15T04:09:26.452Z,91.60
2023-04-15T04:11:53.253Z,91.60
2023-04-15T04:14:20.194Z,91.60
2023-04-15T04:16:47.279Z,91.70
2023-04-15T04:19:14.711Z,91.70
2023-04-15T04:21:41.540Z,91.70
2023-04-15T04:24:08.341Z,91.70
2023-04-15T04:26:35.097Z,91.70
2023-04-15T04:29:02.245Z,91.70
2023-04-15T04:31:29.193Z,91.70
2023-04-15T04:33:56.032Z,91.70
2023-04-15T04:36:22.837Z,91.70
2023-04-15T04:38:49.613Z,91.70
2023-04-15T04:41:16.426Z,91.70
2023-04-15T04:43:43.210Z,91.70
2023-04-15T04:46:10.497Z,91.70
2023-04-15T04:48:37.335Z,91.70
2023-04-15T04:51:04.274Z,91.70
2023-04-15T04:53:31.153Z,91.70
2023-04-15T04:55:58.417Z,91.60
2023-04-15T04:58:25.246Z,91.60
2023-04-15T05:00:52.138Z,91.70
2023-04-15T05:03:19.440Z,91.70
2023-04-15T05:05:46.559Z,91.70
2023-04-15T05:08:13.363Z,91.70
2023-04-15T05:10:40.210Z,91.70
2023-04-15T05:13:07.110Z,91.70
2023-04-15T05:15:35.141Z,91.70
2023-04-15T05:18:02.202Z,91.80
2023-04-15T05:20:29.283Z,91.80
2023-04-15T05:22:56.119Z,91.80
2023-04-15T05:25:23.105Z,91.70
2023-04-15T05:27:49.994Z,91.80
2023-04-15T05:30:16.958Z,91.70
2023-04-15T05:32:43.876Z,91.70
2023-04-15T05:35:10.667Z,91.70
2023-04-15T05:37:37.461Z,91.70
2023-04-15T05:40:04.612Z,91.70
2023-04-15T05:42:31.446Z,91.70
2023-04-15T05:44:58.364Z,91.70
2023-04-15T05:47:25.293Z,91.70
2023-04-15T05:49:52.210Z,91.60
2023-04-15T05:52:18.954Z,91.70
2023-04-15T05:54:45.733Z,91.60
2023-04-15T05:57:12.677Z,91.60
2023-04-15T05:59:42.120Z,91.60
2023-04-15T06:02:10.505Z,91.60
2023-04-15T06:04:37.760Z,91.80
2023-04-15T06:07:04.668Z,91.50
2023-04-15T06:09:31.530Z,91.50
2023-04-15T06:11:59.201Z,91.50
2023-04-15T06:14:26.023Z,91.50
2023-04-15T06:16:52.807Z,91.50
2023-04-15T06:19:20.394Z,91.50
2023-04-15T06:21:47.149Z,91.50
2023-04-15T06:24:13.961Z,91.60
2023-04-15T06:26:40.986Z,91.60
2023-04-15T06:29:07.757Z,91.50
2023-04-15T06:31:34.661Z,91.50
2023-04-15T06:34:01.652Z,91.50
2023-04-15T06:36:28.510Z,91.50
2023-04-15T06:38:56.596Z,91.50
2023-04-15T06:41:23.503Z,91.60
2023-04-15T06:43:50.302Z,91.40
2023-04-15T06:46:17.257Z,91.30
2023-04-15T06:48:44.472Z,91.30
2023-04-15T06:51:11.722Z,91.30
2023-04-15T06:53:41.124Z,91.30
2023-04-15T06:56:11.358Z,91.20
2023-04-15T06:58:38.183Z,91.20
2023-04-15T07:01:05.425Z,91.20
2023-04-15T07:03:33.028Z,91.20
2023-04-15T07:05:59.892Z,91.10
2023-04-15T07:08:26.783Z,91.10
2023-04-15T07:10:54.171Z,91.00
2023-04-15T07:13:21.009Z,91.20
2023-04-15T07:15:47.798Z,91.00
2023-04-15T07:18:14.538Z,91.00
2023-04-15T07:20:41.388Z,90.90
2023-04-15T07:23:08.334Z,90.80
2023-04-15T07:25:35.455Z,90.70
2023-04-15T07:28:02.563Z,90.60
2023-04-15T07:30:29.517Z,90.80
2023-04-15T07:32:56.366Z,90.60
2023-04-15T07:35:23.400Z,90.50
2023-04-15T07:37:50.547Z,90.50
2023-04-15T07:40:17.500Z,90.40
2023-04-15T07:42:44.381Z,90.50
2023-04-15T07:45:11.565Z,90.20
2023-04-15T07:47:38.335Z,90.20
2023-04-15T07:50:05.569Z,90.20
2023-04-15T07:52:35.222Z,90.20
2023-04-15T07:55:02.111Z,90.20
2023-04-15T07:57:28.957Z,90.20
2023-04-15T07:59:55.783Z,90.20
2023-04-15T08:02:22.977Z,90.20
2023-04-15T08:04:50.114Z,90.40
2023-04-15T08:07:17.064Z,90.10
2023-04-15T08:09:44.007Z,90.10
2023-04-15T08:12:13.375Z,90.10
2023-04-15T08:14:40.287Z,90.10
2023-04-15T08:17:07.295Z,90.10
2023-04-15T08:19:34.151Z,90.10
2023-04-15T08:22:01.458Z,90.00
2023-04-15T08:24:28.208Z,90.00
2023-04-15T08:26:54.997Z,90.00
2023-04-15T08:29:21.773Z,90.10
2023-04-15T08:31:48.861Z,89.70
2023-04-15T08:34:15.678Z,89.40
2023-04-15T08:36:42.986Z,89.30
2023-04-15T08:39:09.754Z,89.10
2023-04-15T08:42:05.677Z,88.90
2023-04-15T08:44:34.283Z,88.80
2023-04-15T08:47:02.641Z,88.50
2023-04-15T08:49:29.992Z,88.40
2023-04-15T08:51:58.972Z,88.20
2023-04-15T08:54:25.996Z,88.40
2023-04-15T08:56:53.023Z,87.70
2023-04-15T08:59:21.989Z,87.50
2023-04-15T09:01:51.011Z,87.40
2023-04-15T09:04:17.901Z,87.30
2023-04-15T09:06:44.791Z,87.70
2023-04-15T09:09:13.005Z,87.10
2023-04-15T09:11:40.451Z,87.10
2023-04-15T09:14:07.722Z,86.80
2023-04-15T09:17:02.086Z,86.50
2023-04-15T09:19:30.788Z,86.20
2023-04-15T09:21:59.440Z,86.20
2023-04-15T09:24:33.502Z,85.80
2023-04-15T09:27:02.415Z,85.40
2023-04-15T09:29:29.203Z,85.70
2023-04-15T09:31:56.225Z,85.20
2023-04-15T09:34:23.296Z,84.90
2023-04-15T09:36:54.983Z,84.40
2023-04-15T09:39:21.898Z,83.80
2023-04-15T09:42:05.408Z,83.30
2023-04-15T09:44:32.194Z,82.30
2023-04-15T09:46:59.003Z,82.30
2023-04-15T09:49:25.959Z,82.00
2023-04-15T09:52:05.117Z,81.90
2023-04-15T09:54:37.051Z,82.10
2023-04-15T09:57:10.301Z,81.90
2023-04-15T09:59:37.394Z,82.00
2023-04-15T10:02:05.339Z,81.40
2023-04-15T10:04:33.488Z,81.00
2023-04-15T10:07:00.244Z,80.80
2023-04-15T10:09:27.461Z,80.00
2023-04-15T10:11:54.678Z,78.90
2023-04-15T10:14:21.468Z,78.40
2023-04-15T10:16:49.029Z,77.60
2023-04-15T10:19:16.628Z,77.10
2023-04-15T10:21:45.067Z,76.50
2023-04-15T10:24:12.067Z,76.30
2023-04-15T10:26:38.880Z,76.50
2023-04-15T10:29:05.729Z,76.50
2023-04-15T10:31:32.705Z,76.30
2023-04-15T10:34:04.033Z,77.10
2023-04-15T10:36:31.164Z,76.70
2023-04-15T10:38:57.931Z,77.00
2023-04-15T10:41:31.248Z,77.20
2023-04-15T10:44:02.691Z,77.20
2023-04-15T10:46:39.211Z,77.50
2023-04-15T10:49:13.622Z,77.60
2023-04-15T10:51:42.119Z,77.60
2023-04-15T10:54:16.566Z,77.80
2023-04-15T10:56:44.609Z,77.70
2023-04-15T10:59:11.449Z,77.90
2023-04-15T11:01:54.646Z,77.90
2023-04-15T11:04:57.512Z,77.80
2023-04-15T11:07:39.907Z,78.10
2023-04-15T11:10:20.820Z,78.20
2023-04-15T11:12:51.190Z,78.10
2023-04-15T11:15:30.462Z,77.90
2023-04-15T11:17:58.147Z,76.90
2023-04-15T11:20:25.117Z,76.10
2023-04-15T11:22:53.677Z,75.20
2023-04-15T11:25:40.438Z,73.90
2023-04-15T11:28:07.617Z,73.00
2023-04-15T11:30:36.909Z,72.30
2023-04-15T11:33:12.117Z,72.20
2023-04-15T11:35:41.469Z,71.70
2023-04-15T11:38:14.367Z,72.20
2023-04-15T11:40:42.470Z,71.50
2023-04-15T11:43:10.757Z,71.10
2023-04-15T11:45:52.922Z,70.40
2023-04-15T11:48:21.621Z,69.50
2023-04-15T11:50:53.923Z,69.20
2023-04-15T11:53:20.665Z,68.80
2023-04-15T11:55:48.937Z,68.50
2023-04-15T11:58:21.380Z,68.30
2023-04-15T12:00:48.167Z,68.00
2023-04-15T12:03:17.333Z,67.70
2023-04-15T12:06:12.765Z,67.50
2023-04-15T12:08:55.775Z,67.10
2023-04-15T12:11:39.010Z,67.00
2023-04-15T12:14:11.541Z,67.00
2023-04-15T12:16:52.548Z,67.50
2023-04-15T12:19:41.676Z,66.00
2023-04-15T12:22:15.858Z,64.40
2023-04-15T12:24:49.580Z,62.90
2023-04-15T12:27:17.385Z,62.20
2023-04-15T12:29:44.316Z,61.70
2023-04-15T12:32:20.842Z,61.90
2023-04-15T12:34:51.857Z,62.50
2023-04-15T12:37:18.753Z,62.80
2023-04-15T12:39:48.023Z,61.90
2023-04-15T12:42:15.704Z,61.20
2023-04-15T12:44:43.099Z,60.30
2023-04-15T12:47:10.907Z,58.80
2023-04-15T12:49:37.911Z,57.60
2023-04-15T12:52:04.886Z,57.20
2023-04-15T12:54:32.080Z,57.10
2023-04-15T12:56:59.180Z,57.20
2023-04-15T12:59:26.126Z,57.10
2023-04-15T13:01:53.562Z,57.00
2023-04-15T13:04:21.098Z,57.10
2023-04-15T13:06:48.031Z,56.60
2023-04-15T13:09:15.679Z,55.80
2023-04-15T13:11:42.625Z,55.10
2023-04-15T13:14:09.577Z,55.10
2023-04-15T13:16:36.620Z,55.40
2023-04-15T13:19:04.173Z,56.00
2023-04-15T13:21:33.302Z,56.50
2023-04-15T13:24:00.163Z,57.10
2023-04-15T13:26:27.017Z,57.50
2023-04-15T13:28:53.888Z,57.80
2023-04-15T13:31:21.022Z,58.00
2023-04-15T13:33:47.845Z,57.80
2023-04-15T13:36:14.679Z,57.20
2023-04-15T13:38:41.491Z,56.90
2023-04-15T13:41:08.242Z,55.90
2023-04-15T13:43:35.061Z,54.60
2023-04-15T13:46:01.922Z,53.40
2023-04-15T13:48:28.858Z,52.20
2023-04-15T13:50:55.618Z,51.00
2023-04-15T13:53:38.339Z,49.80
2023-04-15T13:56:06.903Z,49.00
2023-04-15T13:58:33.689Z,49.20
2023-04-15T14:01:01.529Z,49.60
2023-04-15T14:03:29.430Z,50.50
2023-04-15T14:05:56.999Z,51.40
2023-04-15T14:08:24.601Z,51.90
2023-04-15T14:10:51.404Z,52.50
2023-04-15T14:13:19.516Z,52.70
2023-04-15T14:15:46.647Z,53.30
2023-04-15T14:18:13.474Z,53.80
2023-04-15T14:20:40.520Z,53.70
2023-04-15T14:23:07.421Z,53.10
2023-04-15T14:25:34.420Z,52.60
2023-04-15T14:28:04.401Z,52.30
2023-04-15T14:30:31.270Z,51.20
2023-04-15T14:32:58.180Z,49.80
2023-04-15T14:35:26.676Z,48.50
2023-04-15T14:37:54.378Z,47.80
2023-04-15T14:40:21.454Z,46.20
2023-04-15T14:42:48.294Z,46.00
2023-04-15T14:45:15.200Z,44.60
2023-04-15T14:47:42.068Z,43.60
2023-04-15T14:50:09.624Z,42.20
2023-04-15T14:52:39.228Z,41.20
2023-04-15T14:55:10.416Z,40.30
2023-04-15T14:57:41.266Z,39.40
2023-04-15T15:00:09.919Z,38.80
2023-04-15T15:02:39.611Z,38.60
2023-04-15T15:05:07.374Z,37.80
2023-04-15T15:07:34.235Z,37.60
2023-04-15T15:10:01.030Z,37.20
2023-04-15T15:12:27.809Z,36.90
2023-04-15T15:14:55.643Z,37.30
2023-04-15T15:17:22.480Z,37.60
2023-04-15T15:19:49.373Z,38.10
2023-04-15T15:22:16.226Z,38.60
2023-04-15T15:24:43.122Z,39.10
2023-04-15T15:27:10.096Z,39.90
2023-04-15T15:29:37.878Z,40.80
2023-04-15T15:32:04.876Z,41.80
2023-04-15T15:34:31.676Z,42.40
2023-04-15T15:37:00.771Z,42.80
2023-04-15T15:39:27.980Z,43.60
2023-04-15T15:41:54.993Z,43.70
2023-04-15T15:44:21.794Z,43.00
2023-04-15T15:46:49.973Z,42.10
2023-04-15T15:49:16.852Z,41.40
2023-04-15T15:51:43.666Z,40.60
2023-04-15T15:54:10.448Z,39.70
2023-04-15T15:56:39.303Z,39.30
2023-04-15T15:59:06.254Z,39.40
2023-04-15T16:01:33.298Z,38.90
2023-04-15T16:04:00.823Z,38.20
2023-04-15T16:06:28.184Z,37.60
2023-04-15T16:08:55.039Z,37.20
2023-04-15T16:11:21.863Z,37.50
2023-04-15T16:13:48.645Z,37.90
2023-04-15T16:16:15.486Z,38.30
2023-04-15T16:18:42.294Z,38.90
2023-04-15T16:21:09.112Z,38.90
2023-04-15T16:23:36.392Z,39.30
2023-04-15T16:26:03.226Z,39.70
2023-04-15T16:28:30.022Z,40.40
2023-04-15T16:30:57.086Z,40.20
2023-04-15T16:33:23.962Z,39.90
2023-04-15T16:35:51.356Z,39.70
2023-04-15T16:38:18.157Z,39.30
2023-04-15T16:40:45.719Z,39.60
2023-04-15T16:43:12.452Z,40.60
2023-04-15T16:45:39.337Z,42.10
2023-04-15T16:48:06.419Z,43.80
2023-04-15T16:50:33.213Z,45.40
2023-04-15T16:53:00.039Z,46.80
2023-04-15T16:55:27.205Z,48.20
2023-04-15T16:58:02.280Z,49.50
2023-04-15T17:00:31.359Z,50.90
2023-04-15T17:02:58.947Z,52.30
2023-04-15T17:05:27.639Z,53.90
2023-04-15T17:07:54.862Z,55.20
2023-04-15T17:10:22.048Z,56.30
2023-04-15T17:12:51.868Z,57.50
2023-04-15T17:15:19.318Z,58.60
2023-04-15T17:17:46.107Z,59.80
2023-04-15T17:20:13.045Z,61.20
2023-04-15T17:22:39.933Z,61.50
2023-04-15T17:25:07.197Z,63.00
2023-04-15T17:27:33.970Z,63.20
2023-04-15T17:30:00.867Z,63.70
2023-04-15T17:32:34.354Z,64.40
2023-04-15T17:35:02.887Z,64.90
2023-04-15T17:37:29.777Z,65.40
2023-04-15T17:39:56.614Z,65.90
2023-04-15T17:42:23.519Z,66.20
2023-04-15T17:44:50.344Z,66.60
2023-04-15T17:47:17.180Z,67.10
2023-04-15T17:49:44.234Z,67.40
2023-04-15T17:52:11.338Z,67.60
2023-04-15T17:54:38.281Z,67.80
2023-04-15T17:57:05.081Z,68.00
2023-04-15T17:59:33.658Z,68.10
2023-04-15T18:02:00.539Z,68.20
2023-04-15T18:04:27.785Z,68.20
2023-04-15T18:06:54.686Z,68.00
2023-04-15T18:09:22.606Z,68.00
2023-04-15T18:11:49.437Z,68.20
2023-04-15T18:14:27.038Z,68.60
2023-04-15T18:16:57.868Z,68.90
2023-04-15T18:19:25.738Z,69.00
2023-04-15T18:21:52.594Z,69.20
2023-04-15T18:24:19.493Z,69.40
2023-04-15T18:26:48.742Z,69.50
2023-04-15T18:29:15.937Z,69.80
2023-04-15T18:31:42.803Z,70.10
2023-04-15T18:34:09.639Z,70.50
2023-04-15T18:36:36.435Z,70.90
2023-04-15T18:39:04.339Z,71.30
2023-04-15T18:41:31.365Z,71.80
2023-04-15T18:43:58.140Z,72.20
2023-04-15T18:46:24.998Z,72.50
2023-04-15T18:48:51.790Z,73.00
2023-04-15T18:51:18.543Z,74.10
2023-04-15T18:53:45.591Z,74.20
2023-04-15T18:56:12.381Z,74.60
2023-04-15T18:59:09.381Z,75.00
2023-04-15T19:01:26.478Z,75.50
2023-04-15T19:03:53.426Z,75.90
2023-04-15T19:06:20.553Z,76.30
2023-04-15T19:08:47.367Z,77.20
2023-04-15T19:11:14.186Z,77.00
2023-04-15T19:13:41.078Z,77.30
2023-04-15T19:16:07.957Z,77.40
2023-04-15T19:18:34.776Z,77.60
2023-04-15T19:21:01.574Z,77.80
2023-04-15T19:23:28.490Z,78.10
2023-04-15T19:25:55.466Z,78.20
2023-04-15T19:28:22.258Z,78.30
2023-04-15T19:30:49.165Z,78.50
2023-04-15T19:33:16.034Z,78.70
2023-04-15T19:35:43.015Z,78.90
2023-04-15T19:38:09.802Z,79.20
2023-04-15T19:40:36.610Z,79.50
2023-04-15T19:43:03.430Z,79.70
2023-04-15T19:45:31.363Z,80.00
2023-04-15T19:47:58.226Z,80.30
2023-04-15T19:50:26.444Z,80.40
2023-04-15T19:52:53.797Z,80.70
2023-04-15T19:55:20.893Z,80.90
2023-04-15T19:57:47.620Z,81.10
2023-04-15T20:00:14.695Z,81.30
2023-04-15T20:02:41.588Z,81.50
2023-04-15T20:05:09.961Z,81.70
2023-04-15T20:07:36.956Z,81.90
2023-04-15T20:10:09.615Z,82.00
2023-04-15T20:12:50.131Z,82.20
2023-04-15T20:15:19.617Z,82.30
2023-04-15T20:17:46.535Z,82.30
2023-04-15T20:20:13.509Z,82.40
2023-04-15T20:22:41.115Z,82.60
2023-04-15T20:25:08.300Z,82.70
2023-04-15T20:27:35.193Z,82.80
2023-04-15T20:30:03.372Z,82.90
2023-04-15T20:32:32.584Z,83.00
2023-04-15T20:34:59.401Z,82.90
2023-04-15T20:37:26.196Z,83.00
2023-04-15T20:39:53.052Z,83.10
2023-04-15T20:42:19.858Z,83.10
2023-04-15T20:44:46.803Z,83.30
2023-04-15T20:47:13.609Z,83.30
2023-04-15T20:49:40.645Z,83.50
2023-04-15T20:52:07.837Z,83.50
2023-04-15T20:54:34.971Z,83.50
2023-04-15T20:57:02.949Z,83.50
2023-04-15T20:59:30.084Z,83.60
2023-04-15T21:01:57.480Z,83.70
2023-04-15T21:04:24.534Z,83.80
2023-04-15T21:06:52.171Z,83.80
2023-04-15T21:09:19.141Z,83.80
2023-04-15T21:12:00.313Z,83.80
2023-04-15T21:14:28.679Z,83.80
2023-04-15T21:16:57.145Z,83.70
2023-04-15T21:19:23.926Z,83.70
2023-04-15T21:21:50.857Z,83.60
2023-04-15T21:24:17.600Z,83.50
2023-04-15T21:26:44.426Z,83.50
2023-04-15T21:29:13.382Z,83.70
2023-04-15T21:31:42.524Z,84.00
2023-04-15T21:34:09.615Z,84.10
2023-04-15T21:36:37.856Z,84.20
2023-04-15T21:39:05.304Z,84.30
2023-04-15T21:41:32.784Z,84.40
2023-04-15T21:43:59.775Z,84.60
2023-04-15T21:46:33.330Z,84.70
2023-04-15T21:49:02.695Z,85.00
2023-04-15T21:51:29.479Z,85.70
2023-04-15T21:53:56.521Z,85.30
2023-04-15T21:56:24.709Z,85.50
2023-04-15T21:58:54.693Z,85.80
2023-04-15T22:01:21.801Z,85.90
2023-04-15T22:03:48.884Z,85.80
2023-04-15T22:06:15.993Z,85.90
2023-04-15T22:08:54.787Z,85.90
2023-04-15T22:11:27.040Z,86.10
2023-04-15T22:13:54.747Z,86.10
2023-04-15T22:16:21.754Z,86.20
2023-04-15T22:18:48.806Z,86.40
2023-04-15T22:21:15.943Z,86.40
2023-04-15T22:23:45.762Z,86.60
2023-04-15T22:26:12.566Z,86.70
2023-04-15T22:28:39.476Z,86.90
2023-04-15T22:31:06.549Z,87.00
2023-04-15T22:33:33.901Z,87.20
2023-04-15T22:36:00.709Z,87.30
2023-04-15T22:38:27.553Z,87.50
2023-04-15T22:40:54.439Z,87.60
2023-04-15T22:43:21.211Z,87.40
2023-04-15T22:45:51.279Z,87.30
2023-04-15T22:48:18.700Z,87.20
2023-04-15T22:50:45.656Z,87.10
2023-04-15T22:53:12.615Z,87.20
2023-04-15T22:55:39.507Z,87.30
2023-04-15T22:58:06.471Z,87.40
2023-04-15T23:00:33.276Z,87.40
2023-04-15T23:03:00.413Z,87.40
2023-04-15T23:05:27.694Z,87.50
2023-04-15T23:07:54.662Z,87.60
2023-04-15T23:10:21.516Z,87.60
2023-04-15T23:12:48.395Z,87.70
2023-04-15T23:15:15.478Z,87.70
2023-04-15T23:17:42.812Z,87.70
2023-04-15T23:20:10.332Z,87.70
2023-04-15T23:22:37.567Z,87.70
2023-04-15T23:25:05.526Z,87.80
2023-04-15T23:27:32.419Z,87.80
2023-04-15T23:29:59.279Z,87.90
2023-04-15T23:32:27.261Z,88.00
2023-04-15T23:34:54.193Z,88.00
2023-04-15T23:37:21.073Z,88.10
2023-04-15T23:39:47.892Z,88.20
2023-04-15T23:42:14.723Z,88.20
2023-04-15T23:44:41.531Z,88.30
2023-04-15T23:47:08.426Z,88.30
2023-04-15T23:49:36.680Z,88.40
2023-04-15T23:52:03.481Z,88.40
2023-04-15T23:54:30.342Z,88.40
2023-04-15T23:56:57.251Z,88.40
2023-04-15T23:59:24.022Z,88.50
